sensor_id;sensor_type;location;lat;lon;timestamp;P1;durP1;ratioP1;P2;durP2;ratioP2
56343;SDS011;42245;42.058;24.700;2023-07-13T00:02:14;11.15;;;7.53;;
56343;SDS011;42245;42.058;24.700;2023-07-13T00:04:40;9.35;;;7.82;;
56343;SDS011;42245;42.058;24.700;2023-07-13T00:07:06;10.48;;;7.65;;
56343;SDS011;42245;42.058;24.700;2023-07-13T00:09:32;10.30;;;7.50;;
56343;SDS011;42245;42.058;24.700;2023-07-13T00:11:57;10.25;;;7.35;;
56343;SDS011;42245;42.058;24.700;2023-07-13T00:14:24;9.73;;;7.97;;
56343;SDS011;42245;42.058;24.700;2023-07-13T00:16:50;10.95;;;7.57;;
56343;SDS011;42245;42.058;24.700;2023-07-13T00:19:16;9.63;;;7.13;;
56343;SDS011;42245;42.058;24.700;2023-07-13T00:21:41;10.73;;;7.35;;
56343;SDS011;42245;42.058;24.700;2023-07-13T00:24:07;8.02;;;6.72;;
56343;SDS011;42245;42.058;24.700;2023-07-13T00:26:39;10.95;;;7.15;;
56343;SDS011;42245;42.058;24.700;2023-07-13T00:29:05;10.90;;;7.50;;
56343;SDS011;42245;42.058;24.700;2023-07-13T00:31:34;10.07;;;7.30;;
56343;SDS011;42245;42.058;24.700;2023-07-13T00:34:00;10.05;;;7.20;;
56343;SDS011;42245;42.058;24.700;2023-07-13T00:36:25;10.25;;;7.10;;
56343;SDS011;42245;42.058;24.700;2023-07-13T00:38:51;9.05;;;7.28;;
56343;SDS011;42245;42.058;24.700;2023-07-13T00:41:17;10.02;;;7.00;;
56343;SDS011;42245;42.058;24.700;2023-07-13T00:43:43;10.10;;;6.85;;
56343;SDS011;42245;42.058;24.700;2023-07-13T00:46:13;9.45;;;6.72;;
56343;SDS011;42245;42.058;24.700;2023-07-13T00:48:42;8.63;;;6.80;;
56343;SDS011;42245;42.058;24.700;2023-07-13T00:51:08;8.77;;;7.05;;
56343;SDS011;42245;42.058;24.700;2023-07-13T00:53:35;10.57;;;7.20;;
56343;SDS011;42245;42.058;24.700;2023-07-13T00:56:01;11.90;;;7.28;;
56343;SDS011;42245;42.058;24.700;2023-07-13T00:58:27;9.48;;;6.50;;
56343;SDS011;42245;42.058;24.700;2023-07-13T01:00:53;8.02;;;6.70;;
56343;SDS011;42245;42.058;24.700;2023-07-13T01:03:19;10.52;;;6.57;;
56343;SDS011;42245;42.058;24.700;2023-07-13T01:05:44;8.02;;;6.45;;
56343;SDS011;42245;42.058;24.700;2023-07-13T01:08:12;12.60;;;7.28;;
56343;SDS011;42245;42.058;24.700;2023-07-13T01:10:38;9.18;;;7.03;;
56343;SDS011;42245;42.058;24.700;2023-07-13T01:13:07;8.02;;;6.75;;
56343;SDS011;42245;42.058;24.700;2023-07-13T01:18:00;9.70;;;6.80;;
56343;SDS011;42245;42.058;24.700;2023-07-13T01:20:26;8.30;;;6.65;;
56343;SDS011;42245;42.058;24.700;2023-07-13T01:22:52;9.38;;;6.47;;
56343;SDS011;42245;42.058;24.700;2023-07-13T01:25:18;10.38;;;6.30;;
56343;SDS011;42245;42.058;24.700;2023-07-13T01:27:44;10.02;;;6.75;;
56343;SDS011;42245;42.058;24.700;2023-07-13T01:30:09;8.90;;;6.72;;
56343;SDS011;42245;42.058;24.700;2023-07-13T01:32:35;9.32;;;6.50;;
56343;SDS011;42245;42.058;24.700;2023-07-13T01:35:01;11.13;;;6.40;;
56343;SDS011;42245;42.058;24.700;2023-07-13T01:37:27;13.55;;;7.28;;
56343;SDS011;42245;42.058;24.700;2023-07-13T01:39:58;11.10;;;6.95;;
56343;SDS011;42245;42.058;24.700;2023-07-13T01:42:23;10.10;;;7.10;;
56343;SDS011;42245;42.058;24.700;2023-07-13T01:44:49;10.18;;;6.60;;
56343;SDS011;42245;42.058;24.700;2023-07-13T01:47:14;8.43;;;6.63;;
56343;SDS011;42245;42.058;24.700;2023-07-13T01:49:40;9.13;;;6.90;;
56343;SDS011;42245;42.058;24.700;2023-07-13T01:52:06;8.98;;;6.63;;
56343;SDS011;42245;42.058;24.700;2023-07-13T01:54:32;10.20;;;7.00;;
56343;SDS011;42245;42.058;24.700;2023-07-13T01:56:58;9.80;;;7.15;;
56343;SDS011;42245;42.058;24.700;2023-07-13T01:59:24;10.68;;;6.88;;
56343;SDS011;42245;42.058;24.700;2023-07-13T02:01:50;9.02;;;6.70;;
56343;SDS011;42245;42.058;24.700;2023-07-13T02:04:15;14.48;;;6.63;;
56343;SDS011;42245;42.058;24.700;2023-07-13T02:06:40;8.70;;;6.32;;
56343;SDS011;42245;42.058;24.700;2023-07-13T02:09:06;9.23;;;6.38;;
56343;SDS011;42245;42.058;24.700;2023-07-13T02:11:32;11.68;;;6.47;;
56343;SDS011;42245;42.058;24.700;2023-07-13T02:14:01;8.57;;;6.47;;
56343;SDS011;42245;42.058;24.700;2023-07-13T02:16:27;7.88;;;6.47;;
56343;SDS011;42245;42.058;24.700;2023-07-13T02:18:53;8.18;;;6.90;;
56343;SDS011;42245;42.058;24.700;2023-07-13T02:21:20;11.07;;;6.63;;
56343;SDS011;42245;42.058;24.700;2023-07-13T02:23:45;7.95;;;6.20;;
56343;SDS011;42245;42.058;24.700;2023-07-13T02:26:10;11.60;;;7.07;;
56343;SDS011;42245;42.058;24.700;2023-07-13T02:28:36;9.32;;;6.85;;
56343;SDS011;42245;42.058;24.700;2023-07-13T02:31:08;7.30;;;6.32;;
56343;SDS011;42245;42.058;24.700;2023-07-13T02:33:34;8.38;;;6.30;;
56343;SDS011;42245;42.058;24.700;2023-07-13T02:50:11;10.30;;;7.57;;
56343;SDS011;42245;42.058;24.700;2023-07-13T02:52:36;9.50;;;7.63;;
56343;SDS011;42245;42.058;24.700;2023-07-13T02:55:02;9.30;;;6.90;;
56343;SDS011;42245;42.058;24.700;2023-07-13T02:57:27;10.65;;;7.15;;
56343;SDS011;42245;42.058;24.700;2023-07-13T02:59:53;10.05;;;7.93;;
56343;SDS011;42245;42.058;24.700;2023-07-13T03:02:18;10.20;;;7.40;;
56343;SDS011;42245;42.058;24.700;2023-07-13T03:04:44;10.27;;;7.43;;
56343;SDS011;42245;42.058;24.700;2023-07-13T03:07:10;10.38;;;7.82;;
56343;SDS011;42245;42.058;24.700;2023-07-13T03:09:35;9.50;;;7.72;;
56343;SDS011;42245;42.058;24.700;2023-07-13T03:12:01;11.48;;;7.25;;
56343;SDS011;42245;42.058;24.700;2023-07-13T03:14:26;10.93;;;7.35;;
56343;SDS011;42245;42.058;24.700;2023-07-13T03:16:52;8.95;;;7.63;;
56343;SDS011;42245;42.058;24.700;2023-07-13T03:19:18;11.30;;;8.30;;
56343;SDS011;42245;42.058;24.700;2023-07-13T03:21:43;10.18;;;8.20;;
56343;SDS011;42245;42.058;24.700;2023-07-13T03:24:09;12.00;;;8.75;;
56343;SDS011;42245;42.058;24.700;2023-07-13T03:26:35;10.55;;;8.68;;
56343;SDS011;42245;42.058;24.700;2023-07-13T03:29:00;10.30;;;8.05;;
56343;SDS011;42245;42.058;24.700;2023-07-13T03:31:27;10.45;;;7.75;;
56343;SDS011;42245;42.058;24.700;2023-07-13T03:33:55;9.57;;;7.85;;
56343;SDS011;42245;42.058;24.700;2023-07-13T03:36:22;12.77;;;8.02;;
56343;SDS011;42245;42.058;24.700;2023-07-13T03:38:50;8.52;;;7.40;;
56343;SDS011;42245;42.058;24.700;2023-07-13T03:41:16;10.48;;;8.02;;
56343;SDS011;42245;42.058;24.700;2023-07-13T03:43:42;11.10;;;7.50;;
56343;SDS011;42245;42.058;24.700;2023-07-13T03:46:07;10.23;;;7.10;;
56343;SDS011;42245;42.058;24.700;2023-07-13T03:48:33;8.95;;;7.25;;
56343;SDS011;42245;42.058;24.700;2023-07-13T03:50:59;12.25;;;7.15;;
56343;SDS011;42245;42.058;24.700;2023-07-13T03:53:24;9.43;;;7.10;;
56343;SDS011;42245;42.058;24.700;2023-07-13T03:55:50;10.65;;;7.18;;
56343;SDS011;42245;42.058;24.700;2023-07-13T03:58:29;10.02;;;7.15;;
56343;SDS011;42245;42.058;24.700;2023-07-13T04:00:57;13.10;;;7.57;;
56343;SDS011;42245;42.058;24.700;2023-07-13T04:03:23;14.32;;;6.75;;
56343;SDS011;42245;42.058;24.700;2023-07-13T04:05:48;14.02;;;7.65;;
56343;SDS011;42245;42.058;24.700;2023-07-13T04:08:14;8.30;;;6.93;;
56343;SDS011;42245;42.058;24.700;2023-07-13T04:10:39;10.68;;;7.43;;
56343;SDS011;42245;42.058;24.700;2023-07-13T04:13:05;12.75;;;7.18;;
56343;SDS011;42245;42.058;24.700;2023-07-13T04:15:31;15.63;;;7.07;;
56343;SDS011;42245;42.058;24.700;2023-07-13T04:17:57;11.00;;;7.45;;
56343;SDS011;42245;42.058;24.700;2023-07-13T04:20:24;11.13;;;7.57;;
56343;SDS011;42245;42.058;24.700;2023-07-13T04:22:50;25.98;;;8.43;;
56343;SDS011;42245;42.058;24.700;2023-07-13T04:25:15;10.70;;;7.75;;
56343;SDS011;42245;42.058;24.700;2023-07-13T04:27:41;9.70;;;7.47;;
56343;SDS011;42245;42.058;24.700;2023-07-13T04:30:06;14.95;;;8.40;;
56343;SDS011;42245;42.058;24.700;2023-07-13T04:32:32;11.50;;;8.20;;
56343;SDS011;42245;42.058;24.700;2023-07-13T04:34:58;11.00;;;8.50;;
56343;SDS011;42245;42.058;24.700;2023-07-13T04:37:24;18.98;;;8.52;;
56343;SDS011;42245;42.058;24.700;2023-07-13T04:39:52;24.60;;;9.40;;
56343;SDS011;42245;42.058;24.700;2023-07-13T04:42:18;19.70;;;9.40;;
56343;SDS011;42245;42.058;24.700;2023-07-13T04:44:50;13.65;;;9.40;;
56343;SDS011;42245;42.058;24.700;2023-07-13T04:47:16;38.22;;;9.38;;
56343;SDS011;42245;42.058;24.700;2023-07-13T04:49:42;12.20;;;9.77;;
56343;SDS011;42245;42.058;24.700;2023-07-13T04:52:07;14.10;;;9.40;;
56343;SDS011;42245;42.058;24.700;2023-07-13T04:54:33;16.67;;;10.10;;
56343;SDS011;42245;42.058;24.700;2023-07-13T04:56:59;20.75;;;10.32;;
56343;SDS011;42245;42.058;24.700;2023-07-13T04:59:24;17.65;;;10.27;;
56343;SDS011;42245;42.058;24.700;2023-07-13T05:01:50;15.80;;;10.30;;
56343;SDS011;42245;42.058;24.700;2023-07-13T05:04:16;15.30;;;9.77;;
56343;SDS011;42245;42.058;24.700;2023-07-13T05:06:41;16.33;;;10.48;;
56343;SDS011;42245;42.058;24.700;2023-07-13T05:09:07;14.60;;;9.95;;
56343;SDS011;42245;42.058;24.700;2023-07-13T05:11:32;12.30;;;9.70;;
56343;SDS011;42245;42.058;24.700;2023-07-13T05:13:58;14.88;;;9.68;;
56343;SDS011;42245;42.058;24.700;2023-07-13T05:16:23;14.02;;;9.60;;
56343;SDS011;42245;42.058;24.700;2023-07-13T05:18:48;12.80;;;9.82;;
56343;SDS011;42245;42.058;24.700;2023-07-13T05:21:14;18.40;;;10.38;;
56343;SDS011;42245;42.058;24.700;2023-07-13T05:23:39;19.77;;;10.43;;
56343;SDS011;42245;42.058;24.700;2023-07-13T05:26:07;17.63;;;10.20;;
56343;SDS011;42245;42.058;24.700;2023-07-13T05:28:32;13.30;;;9.48;;
56343;SDS011;42245;42.058;24.700;2023-07-13T05:30:58;15.88;;;10.63;;
56343;SDS011;42245;42.058;24.700;2023-07-13T05:33:23;22.38;;;10.48;;
56343;SDS011;42245;42.058;24.700;2023-07-13T05:35:49;16.67;;;10.32;;
56343;SDS011;42245;42.058;24.700;2023-07-13T05:38:14;13.68;;;10.13;;
56343;SDS011;42245;42.058;24.700;2023-07-13T05:40:42;16.63;;;11.30;;
56343;SDS011;42245;42.058;24.700;2023-07-13T05:43:08;17.20;;;11.43;;
56343;SDS011;42245;42.058;24.700;2023-07-13T05:45:34;18.33;;;12.15;;
56343;SDS011;42245;42.058;24.700;2023-07-13T05:47:59;19.75;;;11.88;;
56343;SDS011;42245;42.058;24.700;2023-07-13T05:50:25;22.05;;;12.10;;
56343;SDS011;42245;42.058;24.700;2023-07-13T05:52:51;22.42;;;13.90;;
56343;SDS011;42245;42.058;24.700;2023-07-13T05:55:17;24.58;;;15.82;;
56343;SDS011;42245;42.058;24.700;2023-07-13T05:57:42;30.17;;;19.23;;
56343;SDS011;42245;42.058;24.700;2023-07-13T06:00:08;26.70;;;16.02;;
56343;SDS011;42245;42.058;24.700;2023-07-13T06:02:34;18.15;;;14.20;;
56343;SDS011;42245;42.058;24.700;2023-07-13T06:05:00;20.70;;;12.55;;
56343;SDS011;42245;42.058;24.700;2023-07-13T06:07:25;20.83;;;12.77;;
56343;SDS011;42245;42.058;24.700;2023-07-13T06:09:50;23.75;;;12.93;;
56343;SDS011;42245;42.058;24.700;2023-07-13T06:12:16;18.27;;;13.75;;
56343;SDS011;42245;42.058;24.700;2023-07-13T06:14:41;18.17;;;12.93;;
56343;SDS011;42245;42.058;24.700;2023-07-13T06:17:07;20.05;;;12.75;;
56343;SDS011;42245;42.058;24.700;2023-07-13T06:19:32;18.67;;;12.27;;
56343;SDS011;42245;42.058;24.700;2023-07-13T06:21:58;20.90;;;12.73;;
56343;SDS011;42245;42.058;24.700;2023-07-13T06:24:24;15.55;;;11.63;;
56343;SDS011;42245;42.058;24.700;2023-07-13T06:26:49;28.55;;;13.50;;
56343;SDS011;42245;42.058;24.700;2023-07-13T06:29:15;16.65;;;11.48;;
56343;SDS011;42245;42.058;24.700;2023-07-13T06:31:40;16.52;;;11.40;;
56343;SDS011;42245;42.058;24.700;2023-07-13T06:34:05;29.65;;;12.38;;
56343;SDS011;42245;42.058;24.700;2023-07-13T06:36:31;18.75;;;11.30;;
56343;SDS011;42245;42.058;24.700;2023-07-13T06:38:56;33.80;;;11.98;;
56343;SDS011;42245;42.058;24.700;2023-07-13T06:41:22;21.08;;;12.07;;
56343;SDS011;42245;42.058;24.700;2023-07-13T06:43:47;17.60;;;11.95;;
56343;SDS011;42245;42.058;24.700;2023-07-13T06:46:13;19.75;;;10.45;;
56343;SDS011;42245;42.058;24.700;2023-07-13T06:48:38;18.23;;;10.88;;
56343;SDS011;42245;42.058;24.700;2023-07-13T06:51:04;16.92;;;11.05;;
56343;SDS011;42245;42.058;24.700;2023-07-13T06:53:29;24.13;;;10.73;;
56343;SDS011;42245;42.058;24.700;2023-07-13T06:55:54;14.07;;;10.52;;
56343;SDS011;42245;42.058;24.700;2023-07-13T06:58:21;17.98;;;10.80;;
56343;SDS011;42245;42.058;24.700;2023-07-13T07:00:46;13.60;;;10.45;;
56343;SDS011;42245;42.058;24.700;2023-07-13T07:03:15;17.50;;;9.88;;
56343;SDS011;42245;42.058;24.700;2023-07-13T07:05:41;15.43;;;10.48;;
56343;SDS011;42245;42.058;24.700;2023-07-13T07:08:06;18.08;;;10.60;;
56343;SDS011;42245;42.058;24.700;2023-07-13T07:10:32;19.48;;;11.48;;
56343;SDS011;42245;42.058;24.700;2023-07-13T07:12:58;15.55;;;11.27;;
56343;SDS011;42245;42.058;24.700;2023-07-13T07:15:23;17.67;;;10.65;;
56343;SDS011;42245;42.058;24.700;2023-07-13T07:17:49;17.92;;;10.30;;
56343;SDS011;42245;42.058;24.700;2023-07-13T07:20:14;16.98;;;10.13;;
56343;SDS011;42245;42.058;24.700;2023-07-13T07:22:39;18.13;;;10.38;;
56343;SDS011;42245;42.058;24.700;2023-07-13T07:25:05;15.80;;;10.38;;
56343;SDS011;42245;42.058;24.700;2023-07-13T07:27:30;14.75;;;10.60;;
56343;SDS011;42245;42.058;24.700;2023-07-13T07:29:56;18.77;;;10.38;;
56343;SDS011;42245;42.058;24.700;2023-07-13T07:32:26;13.68;;;9.90;;
56343;SDS011;42245;42.058;24.700;2023-07-13T07:34:51;16.67;;;10.63;;
56343;SDS011;42245;42.058;24.700;2023-07-13T07:37:16;13.98;;;9.98;;
56343;SDS011;42245;42.058;24.700;2023-07-13T07:39:42;12.68;;;9.52;;
56343;SDS011;42245;42.058;24.700;2023-07-13T07:42:08;14.75;;;10.10;;
56343;SDS011;42245;42.058;24.700;2023-07-13T07:44:34;13.13;;;10.05;;
56343;SDS011;42245;42.058;24.700;2023-07-13T07:47:00;20.95;;;9.90;;
56343;SDS011;42245;42.058;24.700;2023-07-13T07:49:25;15.45;;;9.65;;
56343;SDS011;42245;42.058;24.700;2023-07-13T07:51:51;16.42;;;10.70;;
56343;SDS011;42245;42.058;24.700;2023-07-13T07:54:16;16.60;;;10.25;;
56343;SDS011;42245;42.058;24.700;2023-07-13T07:56:42;16.92;;;10.30;;
56343;SDS011;42245;42.058;24.700;2023-07-13T07:59:07;14.43;;;9.93;;
56343;SDS011;42245;42.058;24.700;2023-07-13T08:01:33;16.27;;;10.20;;
56343;SDS011;42245;42.058;24.700;2023-07-13T08:03:58;15.02;;;9.85;;
56343;SDS011;42245;42.058;24.700;2023-07-13T08:06:24;18.80;;;10.30;;
56343;SDS011;42245;42.058;24.700;2023-07-13T08:08:49;12.55;;;9.82;;
56343;SDS011;42245;42.058;24.700;2023-07-13T08:11:15;11.65;;;9.60;;
56343;SDS011;42245;42.058;24.700;2023-07-13T08:13:41;14.48;;;9.80;;
56343;SDS011;42245;42.058;24.700;2023-07-13T08:16:06;12.13;;;9.55;;
56343;SDS011;42245;42.058;24.700;2023-07-13T08:18:32;13.50;;;9.45;;
56343;SDS011;42245;42.058;24.700;2023-07-13T08:20:57;12.98;;;9.20;;
56343;SDS011;42245;42.058;24.700;2023-07-13T08:23:24;15.80;;;10.02;;
56343;SDS011;42245;42.058;24.700;2023-07-13T08:25:51;15.45;;;9.50;;
56343;SDS011;42245;42.058;24.700;2023-07-13T08:28:17;14.25;;;9.23;;
56343;SDS011;42245;42.058;24.700;2023-07-13T08:30:42;11.27;;;8.75;;
56343;SDS011;42245;42.058;24.700;2023-07-13T08:33:08;15.95;;;9.35;;
56343;SDS011;42245;42.058;24.700;2023-07-13T08:35:33;14.57;;;9.38;;
56343;SDS011;42245;42.058;24.700;2023-07-13T08:37:58;13.77;;;9.80;;
56343;SDS011;42245;42.058;24.700;2023-07-13T08:40:25;15.25;;;9.45;;
56343;SDS011;42245;42.058;24.700;2023-07-13T08:42:54;14.13;;;9.30;;
56343;SDS011;42245;42.058;24.700;2023-07-13T08:47:52;12.77;;;8.82;;
56343;SDS011;42245;42.058;24.700;2023-07-13T08:50:23;11.25;;;8.65;;
56343;SDS011;42245;42.058;24.700;2023-07-13T08:52:51;11.38;;;8.27;;
56343;SDS011;42245;42.058;24.700;2023-07-13T08:55:18;14.27;;;8.55;;
56343;SDS011;42245;42.058;24.700;2023-07-13T08:57:48;10.13;;;8.30;;
56343;SDS011;42245;42.058;24.700;2023-07-13T09:00:18;13.63;;;8.50;;
56343;SDS011;42245;42.058;24.700;2023-07-13T09:02:57;14.10;;;8.40;;
56343;SDS011;42245;42.058;24.700;2023-07-13T09:05:38;10.65;;;7.70;;
56343;SDS011;42245;42.058;24.700;2023-07-13T09:10:49;9.98;;;7.68;;
56343;SDS011;42245;42.058;24.700;2023-07-13T09:16:05;11.05;;;8.18;;
56343;SDS011;42245;42.058;24.700;2023-07-13T09:21:00;11.93;;;7.30;;
56343;SDS011;42245;42.058;24.700;2023-07-13T09:23:29;12.65;;;7.28;;
56343;SDS011;42245;42.058;24.700;2023-07-13T09:28:37;9.45;;;7.20;;
56343;SDS011;42245;42.058;24.700;2023-07-13T09:33:42;13.73;;;7.20;;
56343;SDS011;42245;42.058;24.700;2023-07-13T09:36:22;10.38;;;7.22;;
56343;SDS011;42245;42.058;24.700;2023-07-13T09:38:53;12.90;;;7.30;;
56343;SDS011;42245;42.058;24.700;2023-07-13T09:41:26;11.07;;;7.75;;
56343;SDS011;42245;42.058;24.700;2023-07-13T09:44:16;9.95;;;6.97;;
56343;SDS011;42245;42.058;24.700;2023-07-13T09:46:52;11.88;;;7.10;;
56343;SDS011;42245;42.058;24.700;2023-07-13T09:49:22;7.80;;;6.70;;
56343;SDS011;42245;42.058;24.700;2023-07-13T09:51:49;8.57;;;7.03;;
56343;SDS011;42245;42.058;24.700;2023-07-13T09:54:26;9.77;;;6.90;;
56343;SDS011;42245;42.058;24.700;2023-07-13T09:56:55;7.70;;;6.13;;
56343;SDS011;42245;42.058;24.700;2023-07-13T09:59:23;7.90;;;6.35;;
56343;SDS011;42245;42.058;24.700;2023-07-13T10:01:51;9.45;;;6.60;;
56343;SDS011;42245;42.058;24.700;2023-07-13T10:04:18;7.75;;;6.22;;
56343;SDS011;42245;42.058;24.700;2023-07-13T10:06:44;9.55;;;6.13;;
56343;SDS011;42245;42.058;24.700;2023-07-13T10:09:13;7.15;;;6.45;;
56343;SDS011;42245;42.058;24.700;2023-07-13T10:11:40;11.43;;;6.32;;
56343;SDS011;42245;42.058;24.700;2023-07-13T10:14:14;10.55;;;6.05;;
56343;SDS011;42245;42.058;24.700;2023-07-13T10:16:41;9.52;;;6.70;;
56343;SDS011;42245;42.058;24.700;2023-07-13T10:19:17;15.88;;;6.22;;
56343;SDS011;42245;42.058;24.700;2023-07-13T10:21:50;13.77;;;7.50;;
56343;SDS011;42245;42.058;24.700;2023-07-13T10:24:30;11.93;;;6.70;;
56343;SDS011;42245;42.058;24.700;2023-07-13T10:30:18;9.15;;;6.18;;
56343;SDS011;42245;42.058;24.700;2023-07-13T10:32:19;12.82;;;6.97;;
56343;SDS011;42245;42.058;24.700;2023-07-13T10:34:48;10.15;;;6.57;;
56343;SDS011;42245;42.058;24.700;2023-07-13T10:37:16;10.88;;;6.15;;
56343;SDS011;42245;42.058;24.700;2023-07-13T10:39:45;10.80;;;6.32;;
56343;SDS011;42245;42.058;24.700;2023-07-13T10:42:11;12.02;;;6.80;;
56343;SDS011;42245;42.058;24.700;2023-07-13T10:44:40;8.95;;;6.50;;
56343;SDS011;42245;42.058;24.700;2023-07-13T10:47:11;11.60;;;7.05;;
56343;SDS011;42245;42.058;24.700;2023-07-13T10:49:39;9.20;;;6.80;;
56343;SDS011;42245;42.058;24.700;2023-07-13T10:52:06;8.98;;;6.90;;
56343;SDS011;42245;42.058;24.700;2023-07-13T10:54:32;9.43;;;6.63;;
56343;SDS011;42245;42.058;24.700;2023-07-13T10:57:14;9.20;;;6.60;;
56343;SDS011;42245;42.058;24.700;2023-07-13T10:59:46;15.48;;;7.22;;
56343;SDS011;42245;42.058;24.700;2023-07-13T11:04:48;9.02;;;6.78;;
56343;SDS011;42245;42.058;24.700;2023-07-13T11:07:19;9.85;;;6.72;;
56343;SDS011;42245;42.058;24.700;2023-07-13T11:09:59;11.07;;;6.80;;
56343;SDS011;42245;42.058;24.700;2023-07-13T11:12:48;9.98;;;6.65;;
56343;SDS011;42245;42.058;24.700;2023-07-13T11:15:15;8.57;;;6.47;;
56343;SDS011;42245;42.058;24.700;2023-07-13T11:17:55;7.78;;;6.35;;
56343;SDS011;42245;42.058;24.700;2023-07-13T11:20:32;10.90;;;6.82;;
56343;SDS011;42245;42.058;24.700;2023-07-13T11:25:37;8.38;;;6.35;;
56343;SDS011;42245;42.058;24.700;2023-07-13T11:35:33;11.55;;;6.00;;
56343;SDS011;42245;42.058;24.700;2023-07-13T11:38:01;6.85;;;6.05;;
56343;SDS011;42245;42.058;24.700;2023-07-13T11:40:27;12.45;;;6.15;;
56343;SDS011;42245;42.058;24.700;2023-07-13T11:43:01;8.07;;;6.57;;
56343;SDS011;42245;42.058;24.700;2023-07-13T11:45:27;8.38;;;5.95;;
56343;SDS011;42245;42.058;24.700;2023-07-13T11:47:53;13.48;;;6.20;;
56343;SDS011;42245;42.058;24.700;2023-07-13T11:50:22;14.15;;;5.88;;
56343;SDS011;42245;42.058;24.700;2023-07-13T11:52:49;12.88;;;5.68;;
56343;SDS011;42245;42.058;24.700;2023-07-13T11:55:17;9.05;;;6.00;;
56343;SDS011;42245;42.058;24.700;2023-07-13T11:57:47;7.60;;;6.05;;
56343;SDS011;42245;42.058;24.700;2023-07-13T12:00:17;12.18;;;5.78;;
56343;SDS011;42245;42.058;24.700;2023-07-13T12:02:45;9.77;;;5.95;;
56343;SDS011;42245;42.058;24.700;2023-07-13T12:05:13;11.98;;;6.30;;
56343;SDS011;42245;42.058;24.700;2023-07-13T12:07:40;14.57;;;5.90;;
56343;SDS011;42245;42.058;24.700;2023-07-13T12:12:34;9.43;;;5.95;;
56343;SDS011;42245;42.058;24.700;2023-07-13T12:15:01;10.07;;;5.93;;
56343;SDS011;42245;42.058;24.700;2023-07-13T12:17:30;10.68;;;5.60;;
56343;SDS011;42245;42.058;24.700;2023-07-13T12:19:56;12.10;;;5.75;;
56343;SDS011;42245;42.058;24.700;2023-07-13T12:22:22;10.13;;;5.63;;
56343;SDS011;42245;42.058;24.700;2023-07-13T12:24:48;11.35;;;5.82;;
56343;SDS011;42245;42.058;24.700;2023-07-13T12:27:24;13.88;;;5.35;;
56343;SDS011;42245;42.058;24.700;2023-07-13T12:29:56;15.65;;;5.47;;
56343;SDS011;42245;42.058;24.700;2023-07-13T12:32:24;11.18;;;5.55;;
56343;SDS011;42245;42.058;24.700;2023-07-13T12:37:42;13.23;;;5.30;;
56343;SDS011;42245;42.058;24.700;2023-07-13T12:40:15;12.20;;;5.50;;
56343;SDS011;42245;42.058;24.700;2023-07-13T12:42:43;12.30;;;5.65;;
56343;SDS011;42245;42.058;24.700;2023-07-13T12:45:18;11.77;;;5.38;;
56343;SDS011;42245;42.058;24.700;2023-07-13T12:47:49;9.45;;;5.30;;
56343;SDS011;42245;42.058;24.700;2023-07-13T12:50:20;10.27;;;5.38;;
56343;SDS011;42245;42.058;24.700;2023-07-13T12:52:50;14.75;;;5.28;;
56343;SDS011;42245;42.058;24.700;2023-07-13T12:55:18;13.10;;;5.28;;
56343;SDS011;42245;42.058;24.700;2023-07-13T12:57:49;11.35;;;5.30;;
56343;SDS011;42245;42.058;24.700;2023-07-13T13:02:50;7.55;;;5.35;;
56343;SDS011;42245;42.058;24.700;2023-07-13T13:05:16;12.90;;;5.53;;
56343;SDS011;42245;42.058;24.700;2023-07-13T13:07:41;16.50;;;5.35;;
56343;SDS011;42245;42.058;24.700;2023-07-13T13:10:13;12.77;;;5.70;;
56343;SDS011;42245;42.058;24.700;2023-07-13T13:12:39;15.32;;;5.50;;
56343;SDS011;42245;42.058;24.700;2023-07-13T13:15:07;19.05;;;5.32;;
56343;SDS011;42245;42.058;24.700;2023-07-13T13:17:33;11.70;;;4.78;;
56343;SDS011;42245;42.058;24.700;2023-07-13T13:19:59;17.08;;;5.70;;
56343;SDS011;42245;42.058;24.700;2023-07-13T13:22:24;11.18;;;5.55;;
56343;SDS011;42245;42.058;24.700;2023-07-13T13:24:50;13.52;;;5.22;;
56343;SDS011;42245;42.058;24.700;2023-07-13T13:27:16;10.68;;;5.00;;
56343;SDS011;42245;42.058;24.700;2023-07-13T13:29:43;22.00;;;5.63;;
56343;SDS011;42245;42.058;24.700;2023-07-13T13:32:09;21.05;;;5.57;;
56343;SDS011;42245;42.058;24.700;2023-07-13T13:34:37;10.43;;;4.50;;
56343;SDS011;42245;42.058;24.700;2023-07-13T13:37:02;19.85;;;5.28;;
56343;SDS011;42245;42.058;24.700;2023-07-13T13:39:30;21.10;;;5.53;;
56343;SDS011;42245;42.058;24.700;2023-07-13T13:41:58;17.55;;;5.32;;
56343;SDS011;42245;42.058;24.700;2023-07-13T13:44:23;17.27;;;5.30;;
56343;SDS011;42245;42.058;24.700;2023-07-13T13:46:50;17.98;;;5.10;;
56343;SDS011;42245;42.058;24.700;2023-07-13T13:49:18;20.70;;;5.55;;
56343;SDS011;42245;42.058;24.700;2023-07-13T13:51:46;15.50;;;5.03;;
56343;SDS011;42245;42.058;24.700;2023-07-13T13:54:12;22.58;;;5.65;;
56343;SDS011;42245;42.058;24.700;2023-07-13T13:56:40;14.07;;;4.90;;
56343;SDS011;42245;42.058;24.700;2023-07-13T13:59:06;13.35;;;4.93;;
56343;SDS011;42245;42.058;24.700;2023-07-13T14:01:33;23.90;;;5.15;;
56343;SDS011;42245;42.058;24.700;2023-07-13T14:03:59;19.17;;;5.13;;
56343;SDS011;42245;42.058;24.700;2023-07-13T14:06:24;20.75;;;5.25;;
56343;SDS011;42245;42.058;24.700;2023-07-13T14:08:50;13.93;;;5.10;;
56343;SDS011;42245;42.058;24.700;2023-07-13T14:11:19;16.77;;;5.35;;
56343;SDS011;42245;42.058;24.700;2023-07-13T14:13:47;16.73;;;5.15;;
56343;SDS011;42245;42.058;24.700;2023-07-13T14:16:18;15.18;;;6.28;;
56343;SDS011;42245;42.058;24.700;2023-07-13T14:18:45;14.45;;;5.78;;
56343;SDS011;42245;42.058;24.700;2023-07-13T14:21:14;18.38;;;5.70;;
56343;SDS011;42245;42.058;24.700;2023-07-13T14:23:44;14.15;;;5.72;;
56343;SDS011;42245;42.058;24.700;2023-07-13T14:26:13;16.10;;;5.90;;
56343;SDS011;42245;42.058;24.700;2023-07-13T14:28:41;19.55;;;6.10;;
56343;SDS011;42245;42.058;24.700;2023-07-13T14:31:08;18.23;;;6.05;;
56343;SDS011;42245;42.058;24.700;2023-07-13T14:33:35;15.70;;;5.95;;
56343;SDS011;42245;42.058;24.700;2023-07-13T14:36:00;11.48;;;5.60;;
56343;SDS011;42245;42.058;24.700;2023-07-13T14:38:27;21.00;;;5.85;;
56343;SDS011;42245;42.058;24.700;2023-07-13T14:40:52;13.02;;;6.15;;
56343;SDS011;42245;42.058;24.700;2023-07-13T14:43:18;16.65;;;5.65;;
56343;SDS011;42245;42.058;24.700;2023-07-13T14:45:45;14.07;;;6.05;;
56343;SDS011;42245;42.058;24.700;2023-07-13T14:48:16;12.80;;;6.28;;
56343;SDS011;42245;42.058;24.700;2023-07-13T14:50:44;13.02;;;6.15;;
56343;SDS011;42245;42.058;24.700;2023-07-13T14:53:11;15.07;;;5.97;;
56343;SDS011;42245;42.058;24.700;2023-07-13T14:55:36;10.38;;;5.85;;
56343;SDS011;42245;42.058;24.700;2023-07-13T14:58:02;14.43;;;5.88;;
56343;SDS011;42245;42.058;24.700;2023-07-13T15:00:27;21.40;;;6.18;;
56343;SDS011;42245;42.058;24.700;2023-07-13T15:02:54;13.27;;;5.85;;
56343;SDS011;42245;42.058;24.700;2023-07-13T15:05:21;20.77;;;6.20;;
56343;SDS011;42245;42.058;24.700;2023-07-13T15:07:52;17.65;;;5.97;;
56343;SDS011;42245;42.058;24.700;2023-07-13T15:12:51;14.43;;;5.75;;
56343;SDS011;42245;42.058;24.700;2023-07-13T15:15:18;12.82;;;5.95;;
56343;SDS011;42245;42.058;24.700;2023-07-13T15:17:47;15.15;;;6.13;;
56343;SDS011;42245;42.058;24.700;2023-07-13T15:22:44;17.55;;;5.97;;